Time;durP1;ratioP1;P1;durP2;ratioP2;P2;SDS_P1;SDS_P2;PMS_P1;PMS_P2;Temp;Humidity;BMP_temperature;BMP_pressure;BME280_temperature;BME280_humidity;BME280_pressure;Samples;Min_cycle;Max_cycle;Signal;HPM_P1;HPM_P2
2022/02/16 00:02:25;;;;;;;4.23;1.57;;;6.90;1.00;;;;;;5073407;28;20183;-78
2022/02/16 00:04:51;;;;;;;0.87;0.80;;;7.30;1.00;;;;;;5073466;28;20447;-78
2022/02/16 00:07:17;;;;;;;1.40;1.30;;;7.30;1.00;;;;;;5075722;28;20195;-78
2022/02/16 00:09:43;;;;;;;2.13;0.90;;;;;;;;;;5079927;28;20174;-78
2022/02/16 00:12:09;;;;;;;3.20;0.77;;;7.10;1.00;;;;;;5077461;28;20787;-79
2022/02/16 00:14:34;;;;;;;2.17;0.90;;;7.10;1.00;;;;;;5071981;28;20912;-73
2022/02/16 00:17:00;;;;;;;1.93;1.00;;;7.10;1.00;;;;;;5072255;28;20417;-74
2022/02/16 00:19:26;;;;;;;3.53;1.10;;;7.00;1.00;;;;;;5072996;28;20269;-74
2022/02/16 00:21:52;;;;;;;0.80;0.80;;;7.00;1.00;;;;;;5079237;28;20461;-74
2022/02/16 00:24:18;;;;;;;2.00;1.10;;;7.10;1.00;;;;;;5072718;28;20179;-74
2022/02/16 00:26:44;;;;;;;4.00;1.97;;;;;;;;;;5072832;28;20299;-74
2022/02/16 00:29:11;;;;;;;1.70;0.83;;;;;;;;;;5072983;28;20500;-74
2022/02/16 00:31:37;;;;;;;3.63;1.20;;;;;;;;;;5082728;28;20420;-74
2022/02/16 00:34:03;;;;;;;1.03;0.83;;;7.00;1.00;;;;;;5085046;28;20413;-74
2022/02/16 00:36:29;;;;;;;4.53;0.93;;;7.10;1.00;;;;;;5074883;28;20490;-74
2022/02/16 00:38:55;;;;;;;4.03;0.80;;;;;;;;;;5073683;28;20511;-74
2022/02/16 00:41:20;;;;;;;2.03;1.10;;;7.10;1.00;;;;;;5072561;28;20513;-74
2022/02/16 00:43:46;;;;;;;2.87;1.27;;;;;;;;;;5076544;28;20428;-74
2022/02/16 00:46:12;;;;;;;2.30;1.13;;;7.10;1.00;;;;;;5079212;28;20174;-74
2022/02/16 00:48:38;;;;;;;2.07;0.83;;;7.10;1.00;;;;;;5082719;28;20536;-74
2022/02/16 00:51:03;;;;;;;1.90;0.90;;;8.00;1.00;;;;;;5084876;28;20183;-74
2022/02/16 00:53:29;;;;;;;1.20;0.70;;;7.90;1.00;;;;;;5082653;28;20186;-74
2022/02/16 00:55:55;;;;;;;1.57;1.00;;;7.10;1.00;;;;;;5081100;28;20182;-74
2022/02/16 00:58:21;;;;;;;2.03;0.87;;;7.90;1.00;;;;;;5080778;28;20254;-74
2022/02/16 01:00:48;;;;;;;2.10;1.27;;;;;;;;;;5085755;28;20183;-78
2022/02/16 01:03:14;;;;;;;1.73;1.43;;;;;;;;;;5075829;28;20171;-78
2022/02/16 01:05:39;;;;;;;1.10;1.00;;;7.10;1.00;;;;;;5076493;28;20416;-77
2022/02/16 01:08:09;;;;;;;4.20;1.10;;;7.00;1.00;;;;;;5089699;28;20483;-78
2022/02/16 01:10:36;;;;;;;2.30;1.10;;;7.00;1.00;;;;;;5079186;28;20551;-79
2022/02/16 01:13:03;;;;;;;1.80;1.37;;;;;;;;;;5081545;28;20480;-77
2022/02/16 01:15:28;;;;;;;2.60;1.00;;;7.00;1.00;;;;;;5086200;28;20474;-74
2022/02/16 01:17:54;;;;;;;4.00;1.00;;;7.00;1.00;;;;;;5077721;28;20432;-75
2022/02/16 01:20:20;;;;;;;2.20;1.30;;;;;;;;;;5074144;28;20179;-74
2022/02/16 01:22:46;;;;;;;2.73;1.30;;;;;;;;;;5073869;28;20548;-74
2022/02/16 01:25:12;;;;;;;1.30;1.13;;;;;;;;;;5072112;28;20417;-74
2022/02/16 01:27:38;;;;;;;1.47;1.10;;;7.00;1.00;;;;;;5076345;28;20498;-74
2022/02/16 01:30:08;;;;;;;1.23;1.13;;;7.00;1.00;;;;;;5075167;28;20860;-74
2022/02/16 01:32:33;;;;;;;3.30;1.70;;;6.90;1.00;;;;;;5072749;28;20179;-78
2022/02/16 01:35:00;;;;;;;1.17;0.90;;;7.10;1.00;;;;;;5073090;28;20458;-77
2022/02/16 01:37:26;;;;;;;1.67;1.10;;;6.90;1.00;;;;;;5084469;28;20177;-77
2022/02/16 01:39:52;;;;;;;1.83;1.30;;;6.80;1.00;;;;;;5073455;28;20421;-78
2022/02/16 01:42:19;;;;;;;1.03;0.93;;;6.80;1.00;;;;;;5074850;28;20645;-78
2022/02/16 01:44:45;;;;;;;9.20;1.13;;;6.80;1.00;;;;;;5075983;28;20210;-77
2022/02/16 01:47:12;;;;;;;17.93;1.40;;;6.80;1.00;;;;;;5081423;28;20913;-74
2022/02/16 01:49:38;;;;;;;3.63;1.90;;;6.80;1.00;;;;;;5080442;28;20915;-74
2022/02/16 01:52:05;;;;;;;6.60;1.57;;;6.80;1.00;;;;;;5075775;28;20414;-74
2022/02/16 01:54:32;;;;;;;6.73;1.13;;;;;;;;;;5075885;28;20437;-72
2022/02/16 01:56:58;;;;;;;0.60;0.60;;;6.80;1.00;;;;;;5078926;28;20452;-72
2022/02/16 01:59:25;;;;;;;3.90;1.40;;;6.70;1.00;;;;;;5074353;28;20924;-72
2022/02/16 02:01:51;;;;;;;2.13;1.43;;;6.80;1.00;;;;;;5078882;28;20421;-72
2022/02/16 02:04:18;;;;;;;2.33;1.37;;;6.70;1.00;;;;;;5076101;28;20436;-72
2022/02/16 02:06:44;;;;;;;1.53;1.10;;;7.10;1.00;;;;;;5075400;28;20465;-71
2022/02/16 02:09:11;;;;;;;1.80;1.17;;;6.60;1.00;;;;;;5080662;28;20910;-72
2022/02/16 02:11:36;;;;;;;2.60;1.00;;;7.10;1.00;;;;;;5092954;28;20408;-72
2022/02/16 02:14:04;;;;;;;2.60;1.50;;;6.60;1.00;;;;;;5078541;28;20427;-72
2022/02/16 02:16:30;;;;;;;1.17;1.07;;;6.60;1.00;;;;;;5088085;28;20178;-72
2022/02/16 02:18:56;;;;;;;5.63;1.80;;;6.70;1.00;;;;;;5075953;28;20436;-71
2022/02/16 02:21:23;;;;;;;3.07;1.07;;;6.70;1.00;;;;;;5086876;28;20198;-72
2022/02/16 02:23:49;;;;;;;1.63;1.17;;;6.60;1.00;;;;;;5078183;28;20486;-72
2022/02/16 02:26:17;;;;;;;2.53;1.50;;;6.60;1.00;;;;;;5092327;28;20977;-72
2022/02/16 02:28:42;;;;;;;1.00;0.90;;;6.60;1.00;;;;;;5075396;28;20461;-72
2022/02/16 02:31:09;;;;;;;3.33;1.10;;;;;;;;;;5088051;28;20428;-75
2022/02/16 02:33:36;;;;;;;4.70;1.13;;;6.60;1.00;;;;;;5074953;28;20536;-76
2022/02/16 02:36:02;;;;;;;1.60;1.10;;;6.60;1.00;;;;;;5081259;28;20432;-75
2022/02/16 02:38:28;;;;;;;2.80;1.37;;;6.60;1.00;;;;;;5080981;28;20425;-75
2022/02/16 02:40:55;;;;;;;1.67;1.43;;;6.60;1.00;;;;;;5082603;28;20425;-76
2022/02/16 02:43:21;;;;;;;4.90;1.30;;;6.60;1.00;;;;;;5075893;28;20193;-76
2022/02/16 02:45:47;;;;;;;2.23;1.43;;;6.50;1.00;;;;;;5092206;28;20459;-75
2022/02/16 02:48:13;;;;;;;3.63;1.27;;;6.50;1.00;;;;;;5081122;28;20452;-76
2022/02/16 02:50:39;;;;;;;3.33;1.63;;;6.50;1.00;;;;;;5088779;28;20412;-75
2022/02/16 02:53:04;;;;;;;0.80;0.80;;;6.50;1.00;;;;;;5073284;28;20183;-76
2022/02/16 02:55:30;;;;;;;1.97;1.10;;;6.50;1.00;;;;;;5076272;28;20304;-76
2022/02/16 02:57:56;;;;;;;1.80;1.37;;;6.50;1.00;;;;;;5080785;28;20196;-75
2022/02/16 03:00:21;;;;;;;1.10;1.00;;;7.70;1.00;;;;;;5089010;28;20179;-75
2022/02/16 03:02:47;;;;;;;3.17;1.67;;;6.50;1.00;;;;;;5074776;28;20187;-75
2022/02/16 03:05:13;;;;;;;1.47;1.20;;;6.60;1.00;;;;;;5078847;28;20229;-75
2022/02/16 03:07:40;;;;;;;3.77;1.57;;;6.50;1.00;;;;;;5076479;28;20530;-76
2022/02/16 03:10:06;;;;;;;4.50;1.33;;;6.50;1.00;;;;;;5074362;28;20419;-75
2022/02/16 03:12:31;;;;;;;1.57;0.97;;;6.60;1.00;;;;;;5076135;28;20413;-75
2022/02/16 03:14:57;;;;;;;1.47;1.10;;;6.60;1.00;;;;;;5077309;28;20463;-75
2022/02/16 03:17:25;;;;;;;6.53;1.20;;;;;;;;;;5074210;28;20206;-72
2022/02/16 03:19:51;;;;;;;1.63;0.80;;;;;;;;;;5074039;28;20179;-72
2022/02/16 03:22:19;;;;;;;6.67;1.00;;;;;;;;;;5073620;28;20413;-72
2022/02/16 03:24:45;;;;;;;1.63;1.20;;;;;;;;;;5087956;28;20424;-72
2022/02/16 03:27:11;;;;;;;2.10;1.10;;;;;;;;;;5073595;28;20456;-72
2022/02/16 03:29:37;;;;;;;3.30;1.10;;;6.60;1.00;;;;;;5078155;28;20413;-72
2022/02/16 03:32:03;;;;;;;0.90;0.73;;;7.90;1.00;;;;;;5090570;28;20432;-72
2022/02/16 03:34:29;;;;;;;1.63;1.10;;;6.60;1.00;;;;;;5084766;28;20178;-73
2022/02/16 03:36:54;;;;;;;2.93;0.70;;;6.60;1.00;;;;;;5072793;28;20440;-72
2022/02/16 03:39:20;;;;;;;1.83;1.17;;;6.60;1.00;;;;;;5085521;28;20760;-72
2022/02/16 03:41:46;;;;;;;7.00;1.00;;;;;;;;;;5073067;28;20198;-72
2022/02/16 03:44:12;;;;;;;1.20;1.10;;;6.50;1.00;;;;;;5077439;28;20174;-72
2022/02/16 03:46:38;;;;;;;4.30;1.60;;;;;;;;;;5073421;28;20417;-73
2022/02/16 03:49:04;;;;;;;0.90;0.90;;;;;;;;;;5081379;28;20201;-72
2022/02/16 03:51:30;;;;;;;1.10;1.00;;;;;;;;;;5079748;28;20798;-72
2022/02/16 03:53:56;;;;;;;1.23;1.10;;;;;;;;;;5073108;28;20420;-72
2022/02/16 03:56:22;;;;;;;1.63;0.90;;;;;;;;;;5085755;28;20452;-72
2022/02/16 03:58:48;;;;;;;0.90;0.90;;;;;;;;;;5076125;28;20508;-72
2022/02/16 04:01:14;;;;;;;1.57;1.10;;;;;;;;;;5073329;28;20850;-72
2022/02/16 04:03:40;;;;;;;4.17;1.20;;;6.60;1.00;;;;;;5073511;28;20417;-72
2022/02/16 04:06:06;;;;;;;0.80;0.80;;;6.60;1.00;;;;;;5078245;28;20457;-72
2022/02/16 04:08:33;;;;;;;3.23;0.77;;;6.70;1.00;;;;;;5074401;28;20488;-72
2022/02/16 04:10:59;;;;;;;6.77;1.03;;;6.70;1.00;;;;;;5083135;28;20555;-72
2022/02/16 04:13:24;;;;;;;1.13;1.03;;;6.60;1.00;;;;;;5072910;28;20496;-73
2022/02/16 04:15:50;;;;;;;2.43;1.13;;;;;;;;;;5074234;28;20269;-72
2022/02/16 04:18:16;;;;;;;1.10;1.00;;;6.60;1.00;;;;;;5073209;28;20187;-72
2022/02/16 04:20:42;;;;;;;9.00;0.90;;;;;;;;;;5076521;28;20433;-72
2022/02/16 04:23:09;;;;;;;3.40;0.97;;;;;;;;;;5077815;28;20609;-72
2022/02/16 04:25:35;;;;;;;0.80;0.80;;;;;;;;;;5073096;28;20462;-72
2022/02/16 04:28:04;;;;;;;1.37;1.27;;;;;;;;;;5085423;28;20474;-72
2022/02/16 04:30:31;;;;;;;1.10;1.10;;;;;;;;;;5082434;28;20895;-72
2022/02/16 04:32:57;;;;;;;1.87;1.20;;;;;;;;;;5073982;28;20448;-75
2022/02/16 04:35:22;;;;;;;8.23;0.80;;;6.70;1.00;;;;;;5083084;28;20428;-75
2022/02/16 04:37:48;;;;;;;1.83;0.97;;;7.50;1.00;;;;;;5071478;28;20487;-75
2022/02/16 04:40:14;;;;;;;1.23;1.13;;;6.80;1.00;;;;;;5074906;28;20269;-76
2022/02/16 04:42:39;;;;;;;6.03;1.20;;;6.80;1.00;;;;;;5072748;28;20207;-76
2022/02/16 04:45:05;;;;;;;1.77;1.33;;;6.70;1.00;;;;;;5077941;28;20668;-76
2022/02/16 04:47:31;;;;;;;0.77;0.77;;;6.70;1.00;;;;;;5072880;28;20194;-75
2022/02/16 04:49:57;;;;;;;3.90;0.83;;;;;;;;;;5077625;28;20447;-76
2022/02/16 04:52:23;;;;;;;2.10;0.87;;;;;;;;;;5087193;28;20181;-76
2022/02/16 04:54:49;;;;;;;1.33;0.77;;;6.80;1.00;;;;;;5084223;28;20465;-77
2022/02/16 04:57:14;;;;;;;8.73;1.03;;;6.70;1.00;;;;;;5076460;28;20787;-76
2022/02/16 04:59:40;;;;;;;3.33;1.00;;;7.50;1.00;;;;;;5084903;28;20185;-75
2022/02/16 05:02:09;;;;;;;1.00;0.80;;;6.70;1.00;;;;;;5076015;28;20183;-73
2022/02/16 05:04:35;;;;;;;0.97;0.83;;;6.70;1.00;;;;;;5080397;28;20853;-72
2022/02/16 05:07:01;;;;;;;0.70;0.70;;;;;;;;;;5074506;28;20488;-72
2022/02/16 05:09:27;;;;;;;1.67;1.00;;;;;;;;;;5086624;28;20174;-72
2022/02/16 05:11:52;;;;;;;0.83;0.83;;;6.80;1.00;;;;;;5075672;28;20418;-72
2022/02/16 05:14:18;;;;;;;1.00;0.70;;;6.80;1.00;;;;;;5081653;28;20515;-72
2022/02/16 05:16:44;;;;;;;2.20;0.80;;;6.90;1.00;;;;;;5072719;28;20756;-72
2022/02/16 05:19:09;;;;;;;0.73;0.73;;;6.90;1.00;;;;;;5081582;28;20171;-73
2022/02/16 05:21:35;;;;;;;0.80;0.60;;;6.90;1.00;;;;;;5082038;28;20669;-74
2022/02/16 05:24:00;;;;;;;2.10;0.80;;;7.50;1.00;;;;;;5076423;28;20258;-73
2022/02/16 05:26:27;;;;;;;3.80;0.97;;;;;;;;;;5076358;28;20232;-72
2022/02/16 05:28:53;;;;;;;1.20;0.80;;;;;;;;;;5076317;28;20221;-72
2022/02/16 05:31:19;;;;;;;1.50;1.40;;;6.90;1.00;;;;;;5083986;28;20822;-72
2022/02/16 05:33:45;;;;;;;1.00;1.00;;;;;;;;;;5077450;28;20509;-71
2022/02/16 05:36:11;;;;;;;1.07;0.83;;;6.90;1.00;;;;;;5078268;28;20171;-71
2022/02/16 05:38:37;;;;;;;2.53;0.70;;;;;;;;;;5079570;28;20431;-72
2022/02/16 05:41:02;;;;;;;2.90;0.93;;;6.90;1.00;;;;;;5081365;28;20429;-72
2022/02/16 05:43:28;;;;;;;3.63;1.10;;;6.90;1.00;;;;;;5079827;28;20454;-72
2022/02/16 05:45:54;;;;;;;0.80;0.80;;;;;;;;;;5077520;28;20209;-73
2022/02/16 05:48:22;;;;;;;2.37;0.97;;;6.90;1.00;;;;;;5077633;28;20210;-75
2022/02/16 05:50:49;;;;;;;1.63;0.70;;;;;;;;;;5090255;28;20421;-76
2022/02/16 05:53:15;;;;;;;1.30;0.87;;;6.90;1.00;;;;;;5077211;28;20417;-76
2022/02/16 05:56:12;;;;;;;5.10;1.37;;;6.80;1.00;;;;;;5084956;28;20424;-76
2022/02/16 05:58:42;;;;;;;1.07;0.70;;;6.90;1.00;;;;;;5083332;28;20435;-75
2022/02/16 06:01:08;;;;;;;0.80;0.80;;;6.90;1.00;;;;;;5084207;28;20477;-76
2022/02/16 06:03:34;;;;;;;1.93;1.10;;;7.00;1.00;;;;;;5088924;28;20428;-75
2022/02/16 06:06:00;;;;;;;1.27;0.70;;;7.00;1.00;;;;;;5075253;28;20198;-76
2022/02/16 06:08:25;;;;;;;3.63;1.07;;;6.90;1.00;;;;;;5081154;28;20457;-75
2022/02/16 06:10:53;;;;;;;1.87;0.80;;;6.90;1.00;;;;;;5081871;28;20179;-76
2022/02/16 06:13:24;;;;;;;0.60;0.60;;;7.00;1.00;;;;;;5080638;28;20182;-76
2022/02/16 06:15:50;;;;;;;0.70;0.70;;;7.00;1.00;;;;;;5075186;28;20410;-76
2022/02/16 06:18:15;;;;;;;1.10;1.00;;;7.00;1.00;;;;;;5076396;28;20461;-75
2022/02/16 06:20:42;;;;;;;2.30;0.90;;;7.00;1.00;;;;;;5084350;28;20271;-75
2022/02/16 06:23:08;;;;;;;0.63;0.63;;;7.00;1.00;;;;;;5083302;28;20179;-75
2022/02/16 06:25:34;;;;;;;2.90;0.80;;;7.00;1.00;;;;;;5086860;28;20430;-75
2022/02/16 06:28:03;;;;;;;3.40;0.70;;;7.00;1.00;;;;;;5087658;28;20292;-75
2022/02/16 06:30:29;;;;;;;2.37;1.60;;;7.00;1.00;;;;;;5077078;28;20179;-75
2022/02/16 06:32:55;;;;;;;2.53;0.90;;;;;;;;;;5075101;28;20463;-75
2022/02/16 06:35:21;;;;;;;0.90;0.73;;;7.00;1.00;;;;;;5075167;28;20512;-72
2022/02/16 06:37:47;;;;;;;0.90;0.87;;;7.00;1.00;;;;;;5074657;28;20456;-72
2022/02/16 06:40:13;;;;;;;2.67;1.13;;;7.00;1.00;;;;;;5074867;28;20432;-72
2022/02/16 06:42:39;;;;;;;1.70;0.90;;;7.00;1.00;;;;;;5074649;28;20175;-72
2022/02/16 06:45:07;;;;;;;1.90;0.90;;;7.10;1.00;;;;;;5074790;28;20932;-72
2022/02/16 06:47:32;;;;;;;1.10;0.80;;;7.00;1.00;;;;;;5078270;28;21004;-72
2022/02/16 06:49:58;;;;;;;1.23;0.70;;;7.60;1.00;;;;;;5083027;28;20413;-72
2022/02/16 06:52:24;;;;;;;4.50;1.07;;;7.00;1.00;;;;;;5081598;28;20240;-72
2022/02/16 06:54:49;;;;;;;1.27;1.17;;;7.00;1.00;;;;;;5091272;28;20182;-72
2022/02/16 06:57:15;;;;;;;2.30;0.83;;;7.10;1.00;;;;;;5085739;28;20202;-72
2022/02/16 06:59:42;;;;;;;1.27;1.00;;;7.10;1.00;;;;;;5079401;28;20175;-73
2022/02/16 07:02:08;;;;;;;0.87;0.80;;;7.10;1.00;;;;;;5095323;28;20664;-72
2022/02/16 07:04:49;;;;;;;4.30;0.70;;;7.10;1.00;;;;;;5086887;28;20452;-72
2022/02/16 07:07:26;;;;;;;3.13;1.13;;;7.10;1.00;;;;;;5080352;28;20194;-72
2022/02/16 07:09:52;;;;;;;0.80;0.80;;;7.10;1.00;;;;;;5092828;28;20401;-72
2022/02/16 07:12:19;;;;;;;0.70;0.70;;;7.10;1.00;;;;;;5078302;28;20425;-72
2022/02/16 07:14:47;;;;;;;7.70;1.17;;;7.10;1.00;;;;;;5086147;28;20429;-72
2022/02/16 07:17:19;;;;;;;2.80;0.93;;;7.10;1.00;;;;;;5078103;28;20421;-72
2022/02/16 07:19:45;;;;;;;1.20;0.77;;;7.10;1.00;;;;;;5074934;28;20417;-75
2022/02/16 07:22:13;;;;;;;0.70;0.70;;;7.10;1.00;;;;;;5087671;28;20444;-75
2022/02/16 07:24:43;;;;;;;0.93;0.90;;;7.10;1.00;;;;;;5074465;28;20266;-76
2022/02/16 07:27:12;;;;;;;1.47;0.60;;;7.20;1.00;;;;;;5076261;28;20557;-76
2022/02/16 07:29:38;;;;;;;0.77;0.63;;;7.20;1.00;;;;;;5084954;28;20476;-75
2022/02/16 07:32:07;;;;;;;1.20;0.80;;;7.20;1.00;;;;;;5088364;28;20989;-76
2022/02/16 07:34:34;;;;;;;8.57;1.00;;;7.20;1.00;;;;;;5077078;28;20184;-72
2022/02/16 07:37:01;;;;;;;0.93;0.80;;;7.10;1.00;;;;;;5086045;28;20432;-72
2022/02/16 07:39:28;;;;;;;0.97;0.83;;;7.10;1.00;;;;;;5087979;28;20423;-72
2022/02/16 07:41:55;;;;;;;1.00;0.83;;;7.20;1.00;;;;;;5077843;28;20432;-72
2022/02/16 07:44:20;;;;;;;1.20;0.87;;;7.10;1.00;;;;;;5076649;28;20500;-72
2022/02/16 07:46:46;;;;;;;0.90;0.80;;;7.10;1.00;;;;;;5080293;28;21021;-72
2022/02/16 07:49:12;;;;;;;4.77;0.80;;;7.10;1.00;;;;;;5080453;28;20182;-71
2022/02/16 07:51:37;;;;;;;1.40;0.93;;;7.90;1.00;;;;;;5077160;28;20183;-73
2022/02/16 07:54:03;;;;;;;0.80;0.67;;;7.20;1.00;;;;;;5088263;28;20202;-73
2022/02/16 07:56:33;;;;;;;0.70;0.70;;;7.70;1.00;;;;;;5075388;28;20197;-72
2022/02/16 07:59:00;;;;;;;0.70;0.50;;;8.50;1.00;;;;;;5072837;28;20539;-73
2022/02/16 08:01:26;;;;;;;0.73;0.70;;;7.90;1.00;;;;;;5073862;28;20421;-73
2022/02/16 08:03:51;;;;;;;0.80;0.80;;;7.30;1.00;;;;;;5080858;28;20437;-72
2022/02/16 08:06:17;;;;;;;0.80;0.60;;;8.40;1.00;;;;;;5083914;28;20429;-76
2022/02/16 08:08:43;;;;;;;1.17;0.90;;;;;;;;;;5081876;28;20194;-75
2022/02/16 08:11:09;;;;;;;2.10;0.70;;;7.30;1.00;;;;;;5080106;28;20181;-76
2022/02/16 08:13:34;;;;;;;2.50;0.67;;;8.00;1.00;;;;;;5086859;28;20416;-77
2022/02/16 08:16:00;;;;;;;1.00;0.70;;;7.40;1.00;;;;;;5073299;28;20179;-78
2022/02/16 08:18:30;;;;;;;0.60;0.57;;;8.70;1.00;;;;;;5075966;28;20183;-76
2022/02/16 08:21:00;;;;;;;2.40;0.60;;;7.40;1.00;;;;;;5076247;28;20198;-73
2022/02/16 08:23:30;;;;;;;7.60;0.60;;;7.40;1.00;;;;;;5087096;28;20425;-72
2022/02/16 08:25:56;;;;;;;0.77;0.77;;;7.40;1.00;;;;;;5079016;28;20421;-72
2022/02/16 08:28:22;;;;;;;0.70;0.67;;;7.70;1.00;;;;;;5080140;28;20464;-72
2022/02/16 08:30:47;;;;;;;0.80;0.60;;;7.70;1.00;;;;;;5079973;28;20276;-72
2022/02/16 08:33:13;;;;;;;1.10;1.03;;;7.50;1.00;;;;;;5086344;28;20233;-71
2022/02/16 08:35:39;;;;;;;2.00;0.80;;;7.50;1.00;;;;;;5078465;28;20187;-72
2022/02/16 08:38:05;;;;;;;16.43;0.77;;;7.50;1.00;;;;;;5093900;28;20159;-73
2022/02/16 08:40:30;;;;;;;0.70;0.70;;;7.50;1.00;;;;;;5083645;28;20422;-75
2022/02/16 08:43:00;;;;;;;0.63;0.63;;;8.00;1.00;;;;;;5075788;28;20186;-72
2022/02/16 08:45:26;;;;;;;0.60;0.60;;;7.70;1.00;;;;;;5083087;28;20523;-71
2022/02/16 08:47:52;;;;;;;0.63;0.63;;;7.70;1.00;;;;;;5077244;28;20449;-72
2022/02/16 08:50:18;;;;;;;2.53;0.70;;;7.70;1.00;;;;;;5089993;28;20239;-75
2022/02/16 08:52:44;;;;;;;0.63;0.63;;;7.70;1.00;;;;;;5090217;28;20593;-74
2022/02/16 08:55:10;;;;;;;1.80;0.80;;;7.70;1.00;;;;;;5094344;28;20452;-75
2022/02/16 08:57:36;;;;;;;1.37;0.70;;;7.70;1.00;;;;;;5091072;28;20267;-75
2022/02/16 09:00:15;;;;;;;0.93;0.70;;;7.70;1.00;;;;;;5083742;28;20421;-74
2022/02/16 09:02:42;;;;;;;0.63;0.63;;;7.70;1.00;;;;;;5089042;28;20522;-73
2022/02/16 09:05:09;;;;;;;0.90;0.90;;;7.90;1.00;;;;;;5092022;28;20412;-70
2022/02/16 09:07:37;;;;;;;1.17;0.77;;;7.90;1.00;;;;;;5084406;28;20552;-70
2022/02/16 09:10:08;;;;;;;0.87;0.80;;;7.90;1.00;;;;;;5077458;28;20420;-72
2022/02/16 09:12:35;;;;;;;1.40;0.67;;;7.90;1.00;;;;;;5085218;28;20437;-73
2022/02/16 09:15:02;;;;;;;0.67;0.67;;;7.90;1.00;;;;;;5088951;28;20428;-72
2022/02/16 09:17:32;;;;;;;0.50;0.50;;;7.90;1.00;;;;;;5099214;28;20486;-72
2022/02/16 09:19:58;;;;;;;0.93;0.60;;;7.90;1.00;;;;;;5092796;28;22399;-73
2022/02/16 09:22:26;;;;;;;2.10;1.00;;;7.90;1.00;;;;;;5095582;28;20416;-73
2022/02/16 09:25:00;;;;;;;0.63;0.63;;;7.90;1.00;;;;;;5085354;28;20441;-73
2022/02/16 09:27:28;;;;;;;1.13;0.60;;;8.10;1.00;;;;;;5083815;28;20522;-73
2022/02/16 09:29:53;;;;;;;0.70;0.70;;;8.00;1.00;;;;;;5083139;28;20417;-73
2022/02/16 09:32:20;;;;;;;3.50;0.80;;;8.00;1.00;;;;;;5091548;28;20419;-73
2022/02/16 09:34:46;;;;;;;0.70;0.70;;;8.00;1.00;;;;;;5084674;28;20518;-72
2022/02/16 09:37:13;;;;;;;0.93;0.70;;;8.10;1.00;;;;;;5088317;28;20428;-74
2022/02/16 09:39:43;;;;;;;1.93;0.97;;;9.00;1.00;;;;;;5091123;28;20174;-74
2022/02/16 09:42:13;;;;;;;0.90;0.60;;;8.10;1.00;;;;;;5081041;28;20531;-73
2022/02/16 09:44:58;;;;;;;6.63;0.60;;;8.00;1.00;;;;;;5087027;28;20419;-74
2022/02/16 09:47:24;;;;;;;0.80;0.80;;;8.10;1.00;;;;;;5076462;28;20441;-74
2022/02/16 09:50:03;;;;;;;0.63;0.63;;;8.10;1.00;;;;;;5084865;28;20795;-74
2022/02/16 09:52:29;;;;;;;0.70;0.70;;;8.20;1.00;;;;;;5088534;28;20927;-74
2022/02/16 09:54:55;;;;;;;0.60;0.50;;;8.20;1.00;;;;;;5076113;28;20429;-75
2022/02/16 09:57:20;;;;;;;0.60;0.60;;;8.30;1.00;;;;;;5080607;28;20265;-74
2022/02/16 09:59:49;;;;;;;0.83;0.83;;;8.30;1.00;;;;;;5093956;28;20648;-74
2022/02/16 10:02:19;;;;;;;0.60;0.60;;;8.30;1.00;;;;;;5099666;28;20420;-73
2022/02/16 10:04:57;;;;;;;1.77;0.70;;;8.30;1.00;;;;;;5095669;28;20491;-74
2022/02/16 10:07:30;;;;;;;3.80;0.73;;;8.20;1.00;;;;;;5090617;28;20545;-74
2022/02/16 10:10:22;;;;;;;0.80;0.80;;;8.20;1.00;;;;;;5096420;28;20423;-74
2022/02/16 10:12:51;;;;;;;0.67;0.67;;;8.30;1.00;;;;;;5081636;28;20444;-74
2022/02/16 10:15:47;;;;;;;0.63;0.63;;;8.20;1.00;;;;;;5095955;28;20939;-73
2022/02/16 10:18:15;;;;;;;0.73;0.63;;;8.30;1.00;;;;;;5083516;28;20449;-73
2022/02/16 10:20:45;;;;;;;2.83;1.03;;;8.30;1.00;;;;;;5081506;28;20473;-73
2022/02/16 10:23:46;;;;;;;1.43;1.27;;;8.20;1.00;;;;;;5084985;28;20492;-73
2022/02/16 10:26:13;;;;;;;1.00;1.00;;;8.20;1.00;;;;;;5076164;28;20413;-73
2022/02/16 10:28:52;;;;;;;1.10;1.00;;;8.20;1.00;;;;;;5093824;28;20782;-73
2022/02/16 10:31:21;;;;;;;1.60;1.00;;;8.20;1.00;;;;;;5094893;28;20417;-73
2022/02/16 10:33:57;;;;;;;0.90;0.90;;;8.20;1.00;;;;;;5078513;28;20428;-73
2022/02/16 10:36:23;;;;;;;0.80;0.80;;;8.20;1.00;;;;;;5077630;28;20421;-75
2022/02/16 10:38:55;;;;;;;2.50;1.00;;;8.30;1.00;;;;;;5078138;28;20475;-75
2022/02/16 10:41:27;;;;;;;1.10;1.10;;;8.30;1.00;;;;;;5081927;28;20432;-74
2022/02/16 10:43:55;;;;;;;1.77;1.10;;;8.30;1.00;;;;;;5088164;28;20421;-74
2022/02/16 10:46:28;;;;;;;1.10;1.00;;;8.50;1.00;;;;;;5075463;28;20401;-74
2022/02/16 10:49:18;;;;;;;1.00;0.90;;;8.40;1.00;;;;;;5087559;28;20456;-74
2022/02/16 10:52:15;;;;;;;0.83;0.83;;;8.40;1.00;;;;;;5085007;28;20894;-75
2022/02/16 10:55:04;;;;;;;1.17;0.90;;;8.40;1.00;;;;;;5005836;28;20444;-75
2022/02/16 10:57:30;;;;;;;0.90;0.90;;;8.50;1.00;;;;;;5012436;28;20455;-74
2022/02/16 11:00:00;;;;;;;1.47;1.23;;;8.90;1.00;;;;;;5011948;28;20475;-76
2022/02/16 11:02:33;;;;;;;1.00;0.70;;;8.70;1.00;;;;;;5004140;28;20427;-75
2022/02/16 11:05:02;;;;;;;1.13;1.03;;;9.10;1.00;;;;;;5013077;28;20420;-75
2022/02/16 11:07:33;;;;;;;1.00;1.00;;;8.70;1.00;;;;;;5011593;28;20452;-77
2022/02/16 11:10:04;;;;;;;1.00;0.87;;;8.70;1.00;;;;;;5012849;28;20446;-77
2022/02/16 11:12:31;;;;;;;0.83;0.80;;;8.80;1.00;;;;;;5009241;28;20421;-77
2022/02/16 11:15:02;;;;;;;2.33;1.03;;;9.50;1.00;;;;;;5000333;28;20772;-76
2022/02/16 11:17:31;;;;;;;1.30;1.30;;;9.50;1.00;;;;;;4995849;28;20535;-77
2022/02/16 11:20:26;;;;;;;1.50;1.20;;;9.50;1.00;;;;;;5012268;28;20434;-77
2022/02/16 11:23:02;;;;;;;0.90;0.90;;;8.90;1.00;;;;;;5006326;28;20415;-77
2022/02/16 11:26:20;;;;;;;1.20;1.10;;;8.90;1.00;;;;;;5016716;28;20423;-77
2022/02/16 11:28:48;;;;;;;1.33;0.93;;;8.90;1.00;;;;;;4991811;28;20456;-76
2022/02/16 11:31:37;;;;;;;1.30;1.20;;;8.90;1.00;;;;;;5039900;28;20853;-77
2022/02/16 11:34:22;;;;;;;1.57;1.10;;;8.90;1.00;;;;;;5088759;28;20510;-76
2022/02/16 11:37:02;;;;;;;2.00;1.00;;;9.00;1.00;;;;;;5090415;28;20421;-77
2022/02/16 11:39:54;;;;;;;1.10;1.10;;;9.00;1.00;;;;;;5081018;28;20412;-77
2022/02/16 11:42:53;;;;;;;1.37;0.90;;;9.00;1.00;;;;;;5076235;28;20413;-76
2022/02/16 11:45:40;;;;;;;0.90;0.90;;;9.00;1.00;;;;;;4992724;28;20443;-77
2022/02/16 11:48:08;;;;;;;0.77;0.70;;;9.00;1.00;;;;;;5008897;28;20492;-77
2022/02/16 11:51:20;;;;;;;0.90;0.80;;;9.10;1.00;;;;;;5011758;28;20872;-76
2022/02/16 11:53:46;;;;;;;1.00;1.00;;;9.20;1.00;;;;;;5005328;28;20471;-74
2022/02/16 11:56:17;;;;;;;0.83;0.83;;;9.30;1.00;;;;;;5003263;28;21013;-74
2022/02/16 11:58:42;;;;;;;1.23;1.13;;;9.30;1.00;;;;;;5023487;28;20509;-74
2022/02/16 12:01:17;;;;;;;1.03;1.00;;;9.50;1.00;;;;;;5007612;28;20420;-74
2022/02/16 12:03:53;;;;;;;0.90;0.90;;;9.60;1.00;;;;;;5007058;28;20185;-74
2022/02/16 12:06:23;;;;;;;0.80;0.80;;;9.70;1.00;;;;;;4998972;28;20416;-76
2022/02/16 12:09:05;;;;;;;5.77;1.00;;;9.70;1.00;;;;;;5002483;28;20545;-76
2022/02/16 12:12:20;;;;;;;2.40;1.20;;;9.80;1.00;;;;;;5011915;28;20420;-83
2022/02/16 12:15:01;;;;;;;2.27;0.87;;;9.80;1.00;;;;;;4992466;28;20803;-83
2022/02/16 12:17:54;;;;;;;1.17;1.00;;;9.90;1.00;;;;;;4992554;28;20408;-84
2022/02/16 12:20:24;;;;;;;0.77;0.70;;;10.10;1.00;;;;;;4992159;28;20432;-74
2022/02/16 12:22:50;;;;;;;2.73;0.80;;;10.20;1.00;;;;;;5063230;28;20453;-74
2022/02/16 12:25:16;;;;;;;3.80;1.00;;;10.20;1.00;;;;;;5051409;28;20827;-74
2022/02/16 12:27:44;;;;;;;0.57;0.57;;;10.30;1.00;;;;;;5042043;28;20290;-75
2022/02/16 12:30:11;;;;;;;0.70;0.70;;;10.30;1.00;;;;;;5060015;28;20426;-75
2022/02/16 12:32:37;;;;;;;0.80;0.70;;;10.30;1.00;;;;;;5056291;28;20434;-74
2022/02/16 12:35:07;;;;;;;0.70;0.70;;;10.30;1.00;;;;;;5062525;28;20415;-75
2022/02/16 12:37:33;;;;;;;1.23;0.90;;;10.40;1.00;;;;;;5052785;28;20480;-77
2022/02/16 12:40:22;;;;;;;1.40;0.70;;;10.40;1.00;;;;;;5059328;28;20426;-77
2022/02/16 12:42:49;;;;;;;0.70;0.70;;;10.50;1.00;;;;;;5056596;28;20426;-77
2022/02/16 12:45:21;;;;;;;0.90;0.90;;;10.60;1.00;;;;;;5064535;28;20850;-77
2022/02/16 12:47:51;;;;;;;1.00;0.90;;;10.60;1.00;;;;;;5065667;28;20459;-77
2022/02/16 12:50:19;;;;;;;0.70;0.70;;;10.50;1.00;;;;;;5074157;28;20428;-76
2022/02/16 12:52:49;;;;;;;2.10;0.60;;;10.70;1.00;;;;;;5084373;28;20501;-77
2022/02/16 12:55:42;;;;;;;1.00;0.70;;;10.80;1.00;;;;;;5075131;28;20839;-76
2022/02/16 12:58:24;;;;;;;0.60;0.60;;;10.80;1.00;;;;;;5093189;28;20774;-76
2022/02/16 13:01:01;;;;;;;0.50;0.50;;;10.90;1.00;;;;;;5078938;28;20479;-76
2022/02/16 13:03:33;;;;;;;0.80;0.60;;;11.00;1.00;;;;;;5078299;28;20426;-77
2022/02/16 13:06:03;;;;;;;0.60;0.60;;;11.00;1.00;;;;;;5093404;28;20391;-77
2022/02/16 13:08:31;;;;;;;1.17;0.60;;;11.00;1.00;;;;;;5093480;28;20448;-77
2022/02/16 13:10:58;;;;;;;0.50;0.50;;;11.00;1.00;;;;;;5081667;28;20508;-76
2022/02/16 13:13:30;;;;;;;2.77;0.60;;;11.00;1.00;;;;;;5072877;28;20413;-77
2022/02/16 13:16:04;;;;;;;0.60;0.60;;;11.20;1.00;;;;;;5085375;28;20408;-77
2022/02/16 13:18:36;;;;;;;0.53;0.53;;;11.20;1.00;;;;;;5073193;28;20412;-74
2022/02/16 13:21:24;;;;;;;0.50;0.47;;;11.20;1.00;;;;;;5087289;28;20504;-77
2022/02/16 13:24:00;;;;;;;0.60;0.57;;;11.30;1.00;;;;;;5077852;28;20558;-75
2022/02/16 13:26:36;;;;;;;1.87;0.80;;;11.30;1.00;;;;;;5087874;28;20917;-76
2022/02/16 13:29:08;;;;;;;2.30;0.70;;;11.40;1.00;;;;;;5078832;28;20456;-76
2022/02/16 13:31:49;;;;;;;0.53;0.47;;;11.40;1.00;;;;;;5072877;28;20413;-76